Portada
METAR-TAF:

METAR-TAF

Aeroports :

Ipoh, Malàisia

latitud: 04-34-09N, longitud: 101-05-35E, altitud: 40 m

Observació

L'informe es va fer fa 1 hora i 6 minuts, a les 15:00 UTC
Vent 2 kt amb direcció variable
Temperatura 25°C
Humitat 94%
Pressió 1012 hPa
Visibilitat: 8000 m
Escasses núvols a una alçada de 500 ft
Núvols disperses a una alçada de 3000 ft

METAR: WMKI 091500Z VRB02KT 8000 FEW005 SCT030 25/24 Q1012

Hora: 00:06 (16:06 UTC)

Pronòstic

L'informe es va fer fa 5 hores i 6 minuts, a les 11:00 UTC
Pronòstic vàlid del 09 a les 12 UTC al 10 a les 12 UTC
Vent 3 kt amb direcció variable
Visibilitat 10 km o més
Escasses núvols a una alçada de 2000 ft
Temporalment
l' 09 a les 12 UTC al 09 a les 16 UTC
Vent 10 kt del Nord-Oest
Visibilitat: 6000 m
Escasses núvols a una alçada de 1700 ft, Cumulonimbus.
tempesta, pluja

TAF: WMKI 091100Z 0912/1012 VRB03KT 9999 FEW020 TEMPO 0912/0916 31010KT 6000 -TSRA FEW017CB

Observacions i pronòstics meteorològics de més de 4000 aeroports (METAR i TAF).

Les estacions disponibles són els punts grocs i vermells al mapa.

Posi el ratolí al punt desitjat per veure el nom de l'estació.

Feu clic per veure les observacions i els pronòstics meteorològics.

Per canviar el mapa: feu clic els botons verds amb una creu de color negre per apropar; al botó verd amb un guió per allunyar la imatge; o en les fletxes verdes per a mapes adjacents.


METAR-TAF: